Flight Track Log - Related Links

Times and Time Zones

All times are in EDT time to prevent confusion due to time zone crossing. See the N425DD flight status page for this flight to view local times or setup timezone preferences in your user account.


Time Position Orientation Groundspeed Altitude Reporting Facility
EDT Latitude Longitude Course Direction KTS MPH feet Rate Location/Type
Wed 06:16:30 PM 33.8333 -118.0000 140° Southeast 156 180 1,800  Level Southern California TRACON
Wed 06:17:30 PM 33.8000 -117.9667 140° Southeast 169 194 3,200 1,350 Climbing Southern California TRACON
Wed 06:18:30 PM 33.7667 -117.9833 203° Southwest 175 201 4,500 1,158 Climbing Southern California TRACON
Wed 06:19:24 PM 33.7333 -118.0167 220° Southwest 176 203 5,400 767 Climbing Southern California TRACON
Wed 06:21:30 PM 33.6714 -118.0975 227° Southwest 190 219 6,800 957 Climbing Los Angeles Center
Wed 06:22:32 PM 33.6253 -118.1467 222° Southwest 186 214 8,400 1,452 Climbing Los Angeles Center
Wed 06:23:34 PM 33.6106 -118.2061 253° West 181 208 9,800 1,152 Climbing Los Angeles Center
Wed 06:24:37 PM 33.6536 -118.1972 10° North 185 213 10,800 960 Climbing Los Angeles Center
Wed 06:25:39 PM 33.6919 -118.1528 44° Northeast 192 221 11,800 1,016 Climbing Los Angeles Center
Wed 06:26:41 PM 33.7364 -118.1217 30° Northeast 194 223 12,900 1,113 Climbing Los Angeles Center
Wed 06:27:43 PM 33.7869 -118.1075 13° North 189 217 14,100 1,355 Climbing Los Angeles Center
Wed 06:28:45 PM 33.8478 -118.0989 North 186 214 15,700 1,258 Climbing Los Angeles Center
Wed 06:29:47 PM 33.8969 -118.1169 343° North 186 214 16,700 968 Climbing Los Angeles Center
Wed 06:30:49 PM 33.9428 -118.1444 334° Northwest 185 213 17,700 871 Climbing Los Angeles Center
Wed 06:31:51 PM 33.9889 -118.1753 331° Northwest 190 219 18,500 968 Climbing Los Angeles Center
Wed 06:32:53 PM 34.0472 -118.2064 336° Northwest 191 220 19,700 774 Climbing Los Angeles Center
Wed 06:33:55 PM 34.0969 -118.2319 337° Northwest 195 224 20,100 194 Climbing Los Angeles Center
Wed 06:34:57 PM 34.1514 -118.2669 332° Northwest 219 252 20,100 -48 Level Los Angeles Center
Wed 06:35:59 PM 34.2092 -118.3008 334° Northwest 230 265 20,000 -48 Descending Los Angeles Center
Wed 06:37:02 PM 34.2692 -118.3303 338° Northwest 232 267 20,000  Level Los Angeles Center
Wed 06:38:04 PM 34.3386 -118.3703 335° Northwest 232 267 20,000  Level Los Angeles Center
Wed 06:39:06 PM 34.3950 -118.4083 331° Northwest 232 267 20,000  Level Los Angeles Center
Wed 06:40:08 PM 34.4528 -118.4417 335° Northwest 232 267 20,000  Level Los Angeles Center
Wed 06:41:10 PM 34.5094 -118.4789 332° Northwest 232 267 20,000  Level Los Angeles Center
Wed 06:42:12 PM 34.5675 -118.5122 335° Northwest 231 266 20,000  Level Los Angeles Center
Wed 06:43:14 PM 34.6261 -118.5450 335° Northwest 232 267 20,000  Level Los Angeles Center
Wed 06:44:16 PM 34.6844 -118.5794 334° Northwest 233 268 20,000  Level Los Angeles Center
Wed 06:45:19 PM 34.7519 -118.6231 332° Northwest 229 264 20,000  Level Los Angeles Center
Wed 06:46:21 PM 34.8083 -118.6619 330° Northwest 232 267 20,000  Level Los Angeles Center
Wed 06:47:23 PM 34.8647 -118.6997 331° Northwest 232 267 20,000  Level Los Angeles Center
Wed 06:48:25 PM 34.9231 -118.7314 336° Northwest 232 267 20,000  Level Los Angeles Center
Wed 06:49:27 PM 34.9883 -118.7794 329° Northwest 231 266 20,000  Level Los Angeles Center
Wed 06:50:29 PM 35.0450 -118.8150 333° Northwest 230 265 20,000  Level Los Angeles Center
Wed 06:51:31 PM 35.1011 -118.8519 332° Northwest 230 265 20,000  Level Los Angeles Center
Wed 06:52:32 PM 35.1483 -118.8803 334° Northwest 233 268 20,000  Level Los Angeles Center
Wed 06:53:35 PM 35.2161 -118.9258 331° Northwest 234 269 20,000  Level Los Angeles Center
Wed 06:54:37 PM 35.2733 -118.9611 333° Northwest 231 266 20,000  Level Los Angeles Center
Wed 06:55:39 PM 35.3417 -119.0061 332° Northwest 234 269 20,000  Level Los Angeles Center
Wed 06:56:41 PM 35.3972 -119.0433 331° Northwest 231 266 20,000  Level Los Angeles Center
Wed 06:57:43 PM 35.4550 -119.0814 332° Northwest 234 269 20,000  Level Los Angeles Center
Wed 06:58:45 PM 35.5119 -119.1169 333° Northwest 232 267 20,000  Level Los Angeles Center
Wed 06:59:47 PM 35.5731 -119.1431 341° North 238 274 20,000  Level Los Angeles Center
Wed 07:00:49 PM 35.6436 -119.1800 337° Northwest 234 269 20,000  Level Los Angeles Center
Wed 07:01:19 PM 35.6664 -119.1942 333° Northwest 233 268 20,000  Level Oakland Center
Wed 07:02:20 PM 35.7269 -119.2211 340° North 231 266 20,000  Level Oakland Center
Wed 07:03:22 PM 35.7853 -119.2528 336° Northwest 231 266 20,000  Level Oakland Center
Wed 07:04:23 PM 35.8456 -119.2825 338° Northwest 233 268 20,000  Level Oakland Center
Wed 07:05:25 PM 35.9156 -119.3200 337° Northwest 231 266 20,000  Level Oakland Center
Wed 07:06:26 PM 35.9758 -119.3486 339° North 233 268 20,000  Level Oakland Center
Wed 07:07:28 PM 36.0375 -119.3794 338° Northwest 240 276 20,000  Level Oakland Center
Wed 07:08:29 PM 36.0975 -119.4094 338° Northwest 239 275 20,000  Level Oakland Center
Wed 07:09:30 PM 36.1558 -119.4442 334° Northwest 253 291 20,000  Level Oakland Center
Wed 07:10:32 PM 36.2161 -119.4711 340° North 231 266 20,000  Level Oakland Center
Wed 07:11:33 PM 36.2772 -119.5025 338° Northwest 246 283 20,000  Level Oakland Center
Wed 07:12:35 PM 36.3367 -119.5325 338° Northwest 233 268 20,000  Level Oakland Center
Wed 07:13:36 PM 36.4083 -119.5706 337° Northwest 237 273 20,000  Level Oakland Center
Wed 07:14:37 PM 36.4697 -119.6011 338° Northwest 239 275 20,000  Level Oakland Center
Wed 07:15:39 PM 36.5306 -119.6328 337° Northwest 239 275 20,000  Level Oakland Center
Wed 07:16:40 PM 36.5858 -119.6778 327° Northwest 240 276 20,000  Level Oakland Center
Wed 07:17:41 PM 36.6422 -119.7217 328° Northwest 240 276 20,000  Level Oakland Center
Wed 07:18:43 PM 36.6994 -119.7667 328° Northwest 244 281 20,000  Level Oakland Center
Wed 07:19:44 PM 36.7553 -119.8111 327° Northwest 240 276 20,000  Level Oakland Center
Wed 07:20:45 PM 36.8117 -119.8564 327° Northwest 240 276 20,000  Level Oakland Center
Wed 07:21:47 PM 36.8789 -119.9106 327° Northwest 241 277 20,000  Level Oakland Center
Wed 07:22:48 PM 36.9347 -119.9578 326° Northwest 241 277 20,000  Level Oakland Center
Wed 07:23:50 PM 36.9925 -120.0028 328° Northwest 244 281 20,000  Level Oakland Center
Wed 07:24:51 PM 37.0481 -120.0503 326° Northwest 243 280 20,000  Level Oakland Center
Wed 07:25:52 PM 37.1081 -120.0964 328° Northwest 243 280 20,000  Level Oakland Center
Wed 07:26:54 PM 37.1639 -120.1433 326° Northwest 240 276 20,000  Level Oakland Center
Wed 07:27:55 PM 37.2197 -120.1892 327° Northwest 240 276 20,000 -98 Level Oakland Center
Wed 07:28:57 PM 37.2767 -120.2342 328° Northwest 243 280 19,800 -293 Descending Oakland Center
Wed 07:29:58 PM 37.3347 -120.2842 326° Northwest 252 290 19,400 -738 Descending Oakland Center
Wed 07:30:59 PM 37.4003 -120.3283 332° Northwest 266 306 18,300 -703 Descending Oakland Center
Wed 07:31:49 PM 37.4667 -120.3833 327° Northwest 261 300 18,100 -404 Descending Northern Cal TRACON
Wed 07:32:43 PM 37.5167 -120.4333 322° Northwest 257 296 17,600 -800 Descending Northern Cal TRACON
Wed 07:33:49 PM 37.5667 -120.5000 313° West 263 303 16,500 -1,048 Descending Northern Cal TRACON
Wed 07:34:49 PM 37.6333 -120.5500 329° Northwest 260 299 15,400 -1,105 Descending Northern Cal TRACON
Wed 07:35:05 PM 37.6403 -120.5647 301° West 259 298 15,100 -1,013 Descending Oakland Center
Wed 07:36:06 PM 37.6967 -120.6203 322° Northwest 256 295 14,100 -981 Descending Oakland Center
Wed 07:36:49 PM 37.7333 -120.6667 315° West 255 293 13,400 -816 Descending Northern Cal TRACON
Wed 07:37:49 PM 37.7833 -120.7167 322° Northwest 250 288 12,700 -750 Descending Northern Cal TRACON
Wed 07:38:49 PM 37.8500 -120.7833 322° Northwest 252 290 11,900 -800 Descending Northern Cal TRACON
Wed 07:39:49 PM 37.9000 -120.8333 322° Northwest 248 285 11,100 -723 Descending Northern Cal TRACON
Wed 07:40:12 PM 37.9147 -120.8417 336° Northwest 248 285 10,900 -857 Descending Oakland Center
Wed 07:41:13 PM 37.9683 -120.8978 320° Northwest 248 285 9,900 -934 Descending Oakland Center
Wed 07:42:14 PM 38.0203 -120.9542 319° Northwest 248 285 9,000 -927 Descending Oakland Center
Wed 07:43:16 PM 38.0781 -121.0203 318° Northwest 236 272 8,000 -634 Descending Oakland Center
Wed 07:44:17 PM 38.1256 -121.0697 321° Northwest 226 260 7,700 -488 Descending Oakland Center
Wed 07:45:19 PM 38.1719 -121.1194 320° Northwest 220 253 7,000 -710 Descending Oakland Center
Wed 07:45:50 PM 38.2000 -121.1500 319° Northwest 220 253 6,600 -857 Descending Northern Cal TRACON
Wed 07:46:50 PM 38.2500 -121.2000 322° Northwest 230 265 5,700 -800 Descending Northern Cal TRACON
Wed 07:47:50 PM 38.2833 -121.2500 310° West 222 255 5,000 -678 Descending Northern Cal TRACON
Wed 07:48:45 PM 38.3333 -121.3000 322° Northwest 219 252 4,400 -645 Descending Northern Cal TRACON
Wed 07:49:51 PM 38.3833 -121.3500 322° Northwest 223 257 3,700 -720 Descending Northern Cal TRACON
Wed 07:50:25 PM 38.4136 -121.3636 341° North 219 252 3,200 -800 Descending Oakland Center
Wed 07:50:51 PM 38.4333 -121.3833 322° Northwest 209 241 2,900 -675 Descending Northern Cal TRACON
Wed 07:51:45 PM 38.4833 -121.4167 332° Northwest 175 201 2,300 -750 Descending Northern Cal TRACON
Wed 07:52:51 PM 38.5167 -121.4500 322° Northwest 128 147 1,400 -900 Descending Northern Cal TRACON
Wed 07:53:45 PM 38.5333 -121.4833 303° West 110 127 500 -1,000 Descending Northern Cal TRACON
Wed 07:56:00 PM 38.5125 -121.4935 North  Level Estimated

Login

Don't have an account? Register now (free) for customized features, flight alerts, and more!